CBO weather

Awang Airport
Cotabato City, Maguindanao Province, Philippines

Public forecast

Using degrees Celsius for public forecast. Weather courtesy of forecast.io.

Closest aviation weather report (METAR) to Awang Airport

Report is more than 6 hours old.

Closest report is Malabang Airport, 28.6 nm (52.9 km) NNW. Retrieved 2018/10/23 14:00 UTC (2 years ago):

RPMM 231400Z 36005KT 9999 FEW020 BKN090 28/24 Q1013 RMK A2991

Closest aviation forecast (TAF) to Awang Airport

Forecast is more than 12 hours old.

Closest forecast is Cagayan De Oro Airport, 78.8 nm (145.9 km) NNE. Retrieved 2013/10/16 12:12 UTC (7 years ago):

TAF RPML 161100Z 1612/1712 34005KT 9999 FEW018 SCT080 TEMPO 1612/1618 02003KT 8000 -RA FEW017CB SCT018 BKN080